Time;durP1;ratioP1;P1;durP2;ratioP2;P2;SDS_P1;SDS_P2;PMS_P1;PMS_P2;Temp;Humidity;BMP_temperature;BMP_pressure;BME280_temperature;BME280_humidity;BME280_pressure;Samples;Min_cycle;Max_cycle;Signal;HPM_P1;HPM_P2
2023/06/26 00:00:07;;;;;;;5.43;3.75;;;;;;;27.82;46.18;101015.94;5097145;28;20040;-58
2023/06/26 00:02:34;;;;;;;6.55;3.60;;;;;;;27.83;46.19;101019.50;5097592;28;20064;-58
2023/06/26 00:05:02;;;;;;;4.50;3.25;;;;;;;27.84;46.16;101021.22;5097217;28;20055;-58
2023/06/26 00:07:30;;;;;;;4.47;3.53;;;;;;;27.84;46.05;101015.75;5096596;28;20036;-58
2023/06/26 00:09:58;;;;;;;4.93;4.07;;;;;;;27.84;46.13;101019.31;5097197;28;20392;-58
2023/06/26 00:12:26;;;;;;;5.80;4.25;;;;;;;27.85;46.16;101028.34;5096701;28;20048;-58
2023/06/26 00:14:54;;;;;;;4.00;3.17;;;;;;;27.85;45.94;101025.59;5096937;28;20055;-59
2023/06/26 00:17:21;;;;;;;4.65;3.70;;;;;;;27.85;45.80;101025.59;5097039;28;20044;-59
2023/06/26 00:19:50;;;;;;;6.13;4.20;;;;;;;27.87;45.95;101022.69;5097198;28;20510;-58
2023/06/26 00:22:18;;;;;;;7.15;4.63;;;;;;;27.86;46.06;101021.84;5096780;28;20408;-59
2023/06/26 00:24:45;;;;;;;5.95;4.00;;;;;;;27.87;46.11;101018.09;5096825;28;20055;-59
2023/06/26 00:27:13;;;;;;;5.85;3.55;;;;;;;27.87;45.94;101022.69;5096971;28;20040;-59
2023/06/26 00:29:40;;;;;;;5.25;4.03;;;;;;;27.87;45.94;101025.41;5096624;28;20044;-59
2023/06/26 00:32:08;;;;;;;4.75;3.38;;;;;;;27.86;46.01;101016.41;5096408;28;20052;-58
2023/06/26 00:34:35;;;;;;;5.18;3.72;;;;;;;27.88;46.02;101018.97;5096864;28;20050;-58
2023/06/26 00:37:03;;;;;;;4.30;3.58;;;;;;;27.87;45.73;101015.38;5095309;28;20629;-58
2023/06/26 00:39:31;;;;;;;4.65;4.03;;;;;;;27.87;45.88;101018.09;5096375;28;20419;-58
2023/06/26 00:41:58;;;;;;;5.43;3.72;;;;;;;27.88;45.98;101018.97;5094161;28;20476;-59
2023/06/26 00:44:25;;;;;;;5.20;3.78;;;;;;;27.87;46.22;101018.09;5095024;28;20048;-59
2023/06/26 00:46:53;;;;;;;4.70;3.95;;;;;;;27.90;46.21;101027.78;5095746;28;20040;-58
2023/06/26 00:49:21;;;;;;;4.97;3.67;;;;;;;27.88;46.36;101022.53;5094812;28;20500;-58
2023/06/26 00:51:49;;;;;;;4.95;4.38;;;;;;;27.90;46.39;101019.63;5094972;28;20044;-58
2023/06/26 00:54:19;;;;;;;4.90;3.47;;;;;;;27.90;46.54;101023.19;5095808;28;20059;-58
2023/06/26 00:56:48;;;;;;;5.22;3.88;;;;;;;27.89;46.67;101020.66;5095212;28;20052;-59
2023/06/26 00:59:16;;;;;;;5.47;3.83;;;;;;;27.88;47.14;101011.66;5095887;28;20040;-59
2023/06/26 01:01:43;;;;;;;4.25;3.55;;;;;;;27.90;46.74;101014.16;5078001;28;20049;-58
2023/06/26 01:04:17;;;;;;;5.50;3.55;;;;;;;27.90;47.10;101012.28;5075180;28;20396;-58
2023/06/26 01:06:51;;;;;;;4.75;3.67;;;;;;;27.90;47.09;101015.00;5075501;28;20040;-58
2023/06/26 01:09:20;;;;;;;4.65;3.63;;;;;;;27.90;46.84;101015.00;5075178;28;20496;-58
2023/06/26 01:11:50;;;;;;;4.63;3.10;;;;;;;27.91;46.68;101010.41;5089989;28;20047;-58
2023/06/26 01:14:18;;;;;;;5.00;3.25;;;;;;;27.90;47.29;101011.44;5095947;28;20048;-58
2023/06/26 01:16:49;;;;;;;6.78;3.88;;;;;;;27.91;46.89;101021.28;5095569;28;20047;-58
2023/06/26 01:19:26;;;;;;;5.75;3.53;;;;;;;27.91;47.05;101007.69;5095662;28;20059;-58
2023/06/26 01:22:17;;;;;;;4.97;3.70;;;;;;;27.90;47.25;101009.56;5094509;28;20048;-58
2023/06/26 01:25:08;;;;;;;4.85;3.60;;;;;;;27.91;47.11;101016.69;5091251;28;20071;-58
2023/06/26 01:27:37;;;;;;;4.28;3.53;;;;;;;27.92;47.40;101012.13;5096094;28;20387;-58
2023/06/26 01:30:07;;;;;;;4.28;3.28;;;;;;;27.91;47.24;101003.09;5094868;28;20420;-59
2023/06/26 01:32:36;;;;;;;5.15;3.65;;;;;;;27.91;47.63;100999.53;5095196;28;20067;-58
2023/06/26 01:35:06;;;;;;;4.53;3.47;;;;;;;27.91;47.69;100997.66;5094677;28;20051;-58
2023/06/26 01:37:34;;;;;;;4.90;3.67;;;;;;;27.92;47.62;100995.81;5095417;28;20044;-59
2023/06/26 01:40:05;;;;;;;4.85;4.03;;;;;;;27.91;47.71;100996.81;5095180;28;20040;-61
2023/06/26 01:42:34;;;;;;;7.50;3.63;;;;;;;27.91;48.18;100991.38;5093657;28;20408;-59
2023/06/26 01:45:18;;;;;;;4.70;3.78;;;;;;;27.91;48.25;100992.22;5094281;28;20044;-60
2023/06/26 01:47:50;;;;;;;4.70;3.90;;;;;;;27.90;48.80;100995.97;5095184;28;20036;-60
2023/06/26 01:50:22;;;;;;;4.93;4.05;;;;;;;27.89;48.74;100994.28;5091859;28;20070;-60
2023/06/26 01:52:59;;;;;;;5.50;4.07;;;;;;;27.88;49.01;101000.75;5074974;28;20056;-60
2023/06/26 01:55:45;;;;;;;5.10;3.80;;;;;;;27.88;49.23;100995.31;5073638;28;20052;-60
2023/06/26 01:58:16;;;;;;;4.38;3.53;;;;;;;27.86;49.42;101000.09;5073176;28;20045;-59
2023/06/26 02:00:47;;;;;;;4.88;3.97;;;;;;;27.85;49.38;100998.41;5073038;28;20060;-59
2023/06/26 02:03:14;;;;;;;4.70;3.42;;;;;;;27.82;49.50;100999.59;5074851;28;20048;-60
2023/06/26 02:05:42;;;;;;;4.75;3.75;;;;;;;27.80;49.16;100993.53;5074543;28;20049;-60
2023/06/26 02:08:09;;;;;;;4.68;3.83;;;;;;;27.80;49.06;101003.56;5074386;28;20044;-60
2023/06/26 02:10:37;;;;;;;4.18;3.00;;;;;;;27.79;49.25;100999.13;5079105;28;20051;-60
2023/06/26 02:13:05;;;;;;;4.40;3.60;;;;;;;27.77;48.99;101001.19;5093364;28;20047;-59
2023/06/26 02:15:32;;;;;;;5.03;4.10;;;;;;;27.76;49.01;101002.22;5093658;28;20396;-59
2023/06/26 02:18:00;;;;;;;6.20;4.25;;;;;;;27.76;49.38;101007.69;5094437;28;20071;-60
2023/06/26 02:20:27;;;;;;;5.38;3.83;;;;;;;27.75;49.13;101009.56;5094444;28;20048;-60
2023/06/26 02:22:54;;;;;;;5.72;3.30;;;;;;;27.74;49.14;101002.41;5094591;28;20051;-59
2023/06/26 02:25:22;;;;;;;4.28;3.40;;;;;;;27.74;49.33;101007.00;5093487;28;20052;-60
2023/06/26 02:27:49;;;;;;;5.28;4.00;;;;;;;27.74;49.07;101007.00;5093012;28;20049;-59
2023/06/26 02:30:19;;;;;;;5.13;4.20;;;;;;;27.72;49.31;101011.75;5094250;28;20060;-59
2023/06/26 02:32:46;;;;;;;5.47;4.30;;;;;;;27.72;49.16;101014.47;5094203;28;20051;-60
2023/06/26 02:35:14;;;;;;;4.72;4.00;;;;;;;27.70;49.06;101017.38;5093004;28;20059;-60
2023/06/26 02:37:44;;;;;;;5.40;3.72;;;;;;;27.69;49.12;101015.69;5093595;28;20372;-60
2023/06/26 02:40:12;;;;;;;5.22;3.88;;;;;;;27.68;49.41;101016.72;5088602;28;20052;-60
2023/06/26 02:42:41;;;;;;;5.50;4.00;;;;;;;27.69;48.98;101018.41;5075219;28;20048;-59
2023/06/26 02:45:09;;;;;;;4.35;3.53;;;;;;;27.69;49.11;101020.28;5093068;28;20399;-60
2023/06/26 02:47:39;;;;;;;6.32;3.65;;;;;;;27.68;49.32;101018.59;5109577;28;20055;-60
2023/06/26 02:50:09;;;;;;;4.28;3.30;;;;;;;27.68;49.11;101014.00;5092579;28;20056;-60
2023/06/26 02:53:03;;;;;;;4.78;3.78;;;;;;;27.66;48.91;101007.88;5092998;28;20059;-58
2023/06/26 02:55:30;;;;;;;5.18;3.83;;;;;;;27.67;49.36;101009.59;5092758;28;20044;-58
2023/06/26 02:57:58;;;;;;;4.63;3.60;;;;;;;27.67;49.41;101014.16;5092464;28;20407;-58
2023/06/26 03:00:25;;;;;;;5.43;3.58;;;;;;;27.68;49.03;101010.44;5092275;28;20503;-58
2023/06/26 03:02:54;;;;;;;5.53;4.28;;;;;;;27.67;49.06;101008.72;5092240;28;20051;-60
2023/06/26 03:05:23;;;;;;;6.40;4.35;;;;;;;27.67;49.10;101011.44;5092475;28;20522;-60
2023/06/26 03:07:51;;;;;;;4.53;3.70;;;;;;;27.67;49.43;101014.16;5092602;28;20052;-60
2023/06/26 03:10:19;;;;;;;4.63;3.75;;;;;;;27.66;49.34;101015.19;5093280;28;20040;-60
2023/06/26 03:12:46;;;;;;;4.50;3.83;;;;;;;27.66;49.57;101015.19;5092684;28;20066;-58
2023/06/26 03:15:16;;;;;;;5.25;3.80;;;;;;;27.64;49.38;101020.81;5092457;28;20059;-58
2023/06/26 03:17:43;;;;;;;5.22;4.22;;;;;;;27.63;49.51;101013.72;5091953;28;20062;-58
2023/06/26 03:20:17;;;;;;;4.32;3.50;;;;;;;27.61;49.65;101019.31;5092307;28;20070;-58
2023/06/26 03:22:50;;;;;;;5.20;4.07;;;;;;;27.60;49.65;101014.91;5092086;28;20059;-58
2023/06/26 03:25:19;;;;;;;4.50;3.65;;;;;;;27.59;49.44;101015.94;5091874;28;20070;-58
2023/06/26 03:27:47;;;;;;;5.15;4.35;;;;;;;27.58;49.55;101014.22;5091809;28;20379;-58
2023/06/26 03:30:16;;;;;;;5.40;3.85;;;;;;;27.57;49.52;101020.69;5091595;28;20060;-58
2023/06/26 03:32:46;;;;;;;4.60;4.10;;;;;;;27.57;49.28;101020.69;5092413;28;20504;-59
2023/06/26 03:35:14;;;;;;;5.72;4.07;;;;;;;27.58;49.57;101029.69;5093484;28;20055;-59
2023/06/26 03:37:42;;;;;;;5.03;4.20;;;;;;;27.57;49.35;101028.84;5093241;28;20044;-59
2023/06/26 03:40:09;;;;;;;5.30;3.75;;;;;;;27.56;49.44;101021.72;5093141;28;20048;-60
2023/06/26 03:42:37;;;;;;;5.60;3.90;;;;;;;27.54;49.74;101023.78;5091843;28;20063;-59
2023/06/26 03:45:05;;;;;;;5.07;3.92;;;;;;;27.56;49.66;101020.91;5089907;28;20040;-59
2023/06/26 03:47:34;;;;;;;5.95;4.32;;;;;;;27.53;49.36;101016.66;5091873;28;20055;-60
2023/06/26 03:50:02;;;;;;;5.85;3.80;;;;;;;27.53;49.49;101019.38;5092930;28;20048;-59
2023/06/26 03:52:30;;;;;;;4.97;4.07;;;;;;;27.54;49.66;101023.78;5091428;28;20070;-58
2023/06/26 03:54:58;;;;;;;5.85;4.47;;;;;;;27.52;49.20;101028.56;5092985;28;20048;-58
2023/06/26 03:57:25;;;;;;;5.60;3.85;;;;;;;27.52;49.27;101027.72;5092285;28;20048;-58
2023/06/26 03:59:53;;;;;;;5.47;4.15;;;;;;;27.51;49.26;101026.88;5087351;28;20579;-58
2023/06/26 04:02:22;;;;;;;4.93;3.95;;;;;;;27.50;49.28;101017.00;5071781;28;20052;-58
2023/06/26 04:04:50;;;;;;;5.50;4.30;;;;;;;27.51;49.50;101023.31;5071508;28;20048;-58
2023/06/26 04:07:18;;;;;;;4.85;3.83;;;;;;;27.52;49.26;101027.72;5071273;28;20063;-58
2023/06/26 04:09:46;;;;;;;4.93;4.07;;;;;;;27.50;49.15;101027.88;5070674;28;20044;-58
2023/06/26 04:12:13;;;;;;;4.45;3.38;;;;;;;27.52;49.32;101025.00;5090584;28;20052;-60
2023/06/26 04:14:41;;;;;;;5.45;4.38;;;;;;;27.51;49.24;101026.88;5092839;28;20048;-60
2023/06/26 04:17:11;;;;;;;4.07;3.40;;;;;;;27.51;49.04;101035.03;5091726;28;20048;-60
2023/06/26 04:19:38;;;;;;;5.70;4.15;;;;;;;27.52;49.01;101033.16;5092680;28;20044;-60
2023/06/26 04:22:06;;;;;;;5.45;3.97;;;;;;;27.50;48.75;101033.31;5093064;28;20075;-58
2023/06/26 04:24:33;;;;;;;5.43;3.97;;;;;;;27.50;48.95;101038.75;5092741;28;20044;-58
2023/06/26 04:27:00;;;;;;;4.35;3.95;;;;;;;27.50;48.58;101033.31;5092682;28;20044;-58
2023/06/26 04:29:28;;;;;;;5.00;4.47;;;;;;;27.50;48.93;101044.19;5091812;28;20547;-58
2023/06/26 04:31:58;;;;;;;6.53;4.30;;;;;;;27.49;48.87;101041.69;5093100;28;20052;-59
2023/06/26 04:34:27;;;;;;;6.13;4.00;;;;;;;27.50;48.63;101048.81;5092676;28;20044;-60
2023/06/26 04:36:54;;;;;;;4.32;3.90;;;;;;;27.49;48.80;101047.97;5095809;28;20043;-60
2023/06/26 04:39:22;;;;;;;5.45;4.25;;;;;;;27.49;48.70;101049.84;5096686;28;20047;-60
2023/06/26 04:41:49;;;;;;;4.35;3.70;;;;;;;27.50;48.78;101043.34;5096391;28;20044;-59
2023/06/26 04:44:16;;;;;;;5.72;3.63;;;;;;;27.50;48.71;101044.19;5096291;28;20075;-60
2023/06/26 04:46:44;;;;;;;4.95;4.45;;;;;;;27.50;48.82;101052.34;5094074;28;20048;-59
2023/06/26 04:49:12;;;;;;;5.75;4.35;;;;;;;27.51;48.54;101053.22;5095358;28;20048;-60
2023/06/26 04:51:42;;;;;;;5.15;4.30;;;;;;;27.51;48.43;101055.94;5076937;28;20048;-59
2023/06/26 04:54:10;;;;;;;6.95;4.70;;;;;;;27.49;48.66;101050.69;5075945;28;20045;-59
2023/06/26 04:56:39;;;;;;;5.32;4.70;;;;;;;27.50;48.56;101059.69;5075565;28;20045;-59
2023/06/26 04:59:12;;;;;;;8.25;4.00;;;;;;;27.50;48.59;101059.69;5074685;28;20040;-59
2023/06/26 05:01:40;;;;;;;5.75;4.70;;;;;;;27.50;48.53;101060.50;5074779;28;20393;-59
2023/06/26 05:04:08;;;;;;;5.35;4.22;;;;;;;27.51;48.72;101061.38;5075437;28;20055;-58
2023/06/26 05:06:35;;;;;;;6.32;4.70;;;;;;;27.50;48.82;101059.69;5076041;28;20044;-58
2023/06/26 05:09:02;;;;;;;4.85;4.10;;;;;;;27.50;48.89;101051.50;5075618;28;20499;-58
2023/06/26 05:11:30;;;;;;;6.38;4.28;;;;;;;27.49;48.39;101056.13;5087815;28;20106;-58
2023/06/26 05:13:57;;;;;;;6.53;4.47;;;;;;;27.50;48.53;101065.97;5096000;28;20048;-58
2023/06/26 05:16:24;;;;;;;4.43;4.03;;;;;;;27.49;48.38;101053.41;5096204;28;20055;-58
2023/06/26 05:18:54;;;;;;;5.03;4.30;;;;;;;27.50;47.99;101060.50;5095919;28;20044;-58
2023/06/26 05:21:21;;;;;;;5.05;3.75;;;;;;;27.52;48.30;101060.34;5095725;28;20479;-60
2023/06/26 05:23:51;;;;;;;6.15;4.35;;;;;;;27.52;48.05;101063.91;5096107;28;20040;-60
2023/06/26 05:26:19;;;;;;;6.10;4.10;;;;;;;27.52;48.60;101066.63;5094192;28;20052;-60
2023/06/26 05:28:48;;;;;;;4.50;3.83;;;;;;;27.53;48.59;101064.75;5095509;28;20407;-60
2023/06/26 05:31:16;;;;;;;4.75;3.88;;;;;;;27.52;48.51;101060.34;5095659;28;20056;-59
2023/06/26 05:33:45;;;;;;;5.60;3.58;;;;;;;27.52;48.43;101065.78;5095639;28;20048;-58
2023/06/26 05:36:13;;;;;;;5.25;4.30;;;;;;;27.50;48.25;101062.41;5095273;28;20048;-58
2023/06/26 05:38:41;;;;;;;7.05;4.68;;;;;;;27.50;48.40;101065.13;5095789;28;20040;-58
2023/06/26 05:41:09;;;;;;;5.93;4.55;;;;;;;27.50;48.23;101059.69;5081261;28;20044;-59
2023/06/26 05:43:36;;;;;;;5.03;3.78;;;;;;;27.49;48.33;101058.00;5075104;28;20067;-58
2023/06/26 05:46:04;;;;;;;5.47;4.10;;;;;;;27.49;48.56;101056.13;5080322;28;20514;-58
2023/06/26 05:48:31;;;;;;;6.35;4.03;;;;;;;27.49;48.41;101069.72;5093272;28;20110;-58
2023/06/26 05:50:58;;;;;;;5.00;3.75;;;;;;;27.51;48.74;101062.22;5094943;28;20044;-59
2023/06/26 05:53:26;;;;;;;7.97;4.20;;;;;;;27.51;48.56;101062.22;5094994;28;20047;-60
2023/06/26 05:55:54;;;;;;;6.72;3.95;;;;;;;27.50;48.62;101065.97;5095413;28;20048;-60
2023/06/26 05:58:25;;;;;;;5.88;4.13;;;;;;;27.51;48.64;101067.66;5094907;28;20400;-60
2023/06/26 06:00:52;;;;;;;5.32;4.05;;;;;;;27.53;49.09;101072.91;5094672;28;20396;-59
2023/06/26 06:03:19;;;;;;;5.15;3.92;;;;;;;27.53;48.96;101073.75;5094522;28;20050;-60
2023/06/26 06:05:47;;;;;;;4.90;4.30;;;;;;;27.53;49.21;101073.75;5094126;28;20538;-60
2023/06/26 06:08:14;;;;;;;6.88;4.70;;;;;;;27.55;48.96;101081.75;5094545;28;20059;-60
2023/06/26 06:10:42;;;;;;;4.60;3.85;;;;;;;27.54;49.32;101086.31;5093695;28;20495;-60
2023/06/26 06:13:09;;;;;;;4.65;4.20;;;;;;;27.56;49.11;101088.88;5094706;28;20048;-60
2023/06/26 06:15:37;;;;;;;5.47;4.57;;;;;;;27.55;49.45;101079.88;5094507;28;20051;-60
2023/06/26 06:18:04;;;;;;;5.50;4.20;;;;;;;27.54;49.15;101086.31;5094452;28;20048;-60
2023/06/26 06:20:32;;;;;;;5.15;3.78;;;;;;;27.54;49.11;101086.31;5093480;28;20051;-60
2023/06/26 06:22:59;;;;;;;5.45;4.30;;;;;;;27.56;49.13;101097.03;5093975;28;20055;-58
2023/06/26 06:25:27;;;;;;;6.15;4.43;;;;;;;27.57;49.23;101091.41;5094216;28;20476;-58
2023/06/26 06:27:54;;;;;;;7.05;4.20;;;;;;;27.58;49.29;101089.53;5094864;28;20480;-58
2023/06/26 06:30:22;;;;;;;5.43;4.18;;;;;;;27.59;49.55;101091.25;5094064;28;20062;-58
2023/06/26 06:33:09;;;;;;;5.20;4.50;;;;;;;27.59;49.76;101089.38;5093442;28;20075;-60
2023/06/26 06:35:36;;;;;;;6.97;4.35;;;;;;;27.59;49.56;101094.81;5094673;28;20411;-60
2023/06/26 06:38:04;;;;;;;5.25;4.65;;;;;;;27.56;49.66;101083.44;5094251;28;20044;-59
2023/06/26 06:40:31;;;;;;;5.90;4.18;;;;;;;27.52;49.30;101088.41;5094129;28;20040;-60
2023/06/26 06:42:58;;;;;;;6.05;4.03;;;;;;;27.48;49.44;101088.94;5094559;28;20048;-58
2023/06/26 06:45:25;;;;;;;7.85;4.82;;;;;;;27.44;49.72;101087.59;5094052;28;20047;-58
2023/06/26 06:47:53;;;;;;;7.10;4.53;;;;;;;27.39;49.61;101099.03;5092637;28;20051;-59
2023/06/26 06:50:20;;;;;;;5.53;4.28;;;;;;;27.33;49.88;101088.84;5094078;28;20048;-58
2023/06/26 06:52:48;;;;;;;4.82;4.13;;;;;;;27.31;49.81;101080.88;5088117;28;20037;-59
2023/06/26 06:55:15;;;;;;;6.72;5.07;;;;;;;27.28;50.21;101088.53;5073504;28;20051;-59
2023/06/26 06:57:42;;;;;;;6.05;4.55;;;;;;;27.26;50.03;101079.69;5072438;28;20052;-61
2023/06/26 07:00:11;;;;;;;7.90;4.80;;;;;;;27.27;49.83;101084.13;5072840;28;20055;-61
2023/06/26 07:02:40;;;;;;;6.30;4.40;;;;;;;27.28;49.98;101086.66;5073509;28;20040;-61
2023/06/26 07:05:09;;;;;;;4.85;4.20;;;;;;;27.30;49.80;101086.47;5073760;28;20048;-61
2023/06/26 07:07:38;;;;;;;6.80;4.95;;;;;;;27.30;49.89;101086.47;5073832;28;20056;-61
2023/06/26 07:10:11;;;;;;;6.03;4.47;;;;;;;27.28;50.20;101085.81;5072208;28;20052;-61
2023/06/26 07:12:38;;;;;;;5.57;4.63;;;;;;;27.27;49.99;101093.13;5073318;28;20044;-60
2023/06/26 07:15:06;;;;;;;4.93;4.43;;;;;;;27.26;49.96;101087.84;5076695;28;20039;-60
2023/06/26 07:17:34;;;;;;;4.95;4.45;;;;;;;27.28;50.10;101083.09;5072895;28;20036;-60
2023/06/26 07:20:08;;;;;;;6.95;4.60;;;;;;;27.30;49.67;101087.31;5072759;28;20044;-60
2023/06/26 07:22:36;;;;;;;7.03;4.38;;;;;;;27.32;49.87;101088.00;5073251;28;20048;-61
2023/06/26 07:25:04;;;;;;;5.13;4.60;;;;;;;27.37;49.96;101087.47;5072884;28;20049;-61
2023/06/26 07:27:33;;;;;;;6.03;4.75;;;;;;;27.42;49.58;101086.91;5073203;28;20056;-62
2023/06/26 07:30:00;;;;;;;8.30;5.45;;;;;;;27.45;49.66;101075.69;5073102;28;20051;-62
2023/06/26 07:32:28;;;;;;;5.93;4.28;;;;;;;27.48;49.73;101073.47;5073467;28;20485;-60
2023/06/26 07:34:55;;;;;;;5.13;4.03;;;;;;;27.52;49.60;101079.38;5073295;28;20052;-61
2023/06/26 07:37:23;;;;;;;4.78;4.15;;;;;;;27.54;49.76;101075.44;5073216;28;20041;-60
2023/06/26 07:39:50;;;;;;;5.75;4.35;;;;;;;27.59;49.36;101075.78;5073242;28;20041;-60
2023/06/26 07:42:17;;;;;;;7.35;4.30;;;;;;;27.60;49.67;101080.19;5072603;28;20380;-60
2023/06/26 07:44:45;;;;;;;4.95;4.45;;;;;;;27.63;48.96;101086.28;5072902;28;20468;-60
2023/06/26 07:47:13;;;;;;;5.60;4.05;;;;;;;27.61;48.92;101081.88;5072991;28;20055;-60
2023/06/26 07:49:40;;;;;;;5.93;4.25;;;;;;;27.62;49.29;101088.16;5072703;28;20111;-59
2023/06/26 07:52:10;;;;;;;4.30;3.80;;;;;;;27.61;49.23;101076.41;5072893;28;20047;-60
2023/06/26 07:54:40;;;;;;;4.80;4.10;;;;;;;27.60;49.24;101076.63;5072689;28;20044;-60
2023/06/26 07:57:08;;;;;;;4.72;3.90;;;;;;;27.59;48.87;101089.38;5072744;28;20060;-60
2023/06/26 07:59:36;;;;;;;4.43;3.88;;;;;;;27.59;48.62;101085.81;5072812;28;20045;-60
2023/06/26 08:02:03;;;;;;;5.35;4.50;;;;;;;27.56;48.28;101092.44;5072923;28;20056;-60
2023/06/26 08:04:31;;;;;;;5.47;4.57;;;;;;;27.53;48.07;101081.91;5072971;28;20504;-60
2023/06/26 08:07:01;;;;;;;4.88;3.95;;;;;;;27.54;47.65;101088.19;5072209;28;20095;-60
2023/06/26 08:09:29;;;;;;;4.78;4.20;;;;;;;27.53;47.89;101081.91;5072592;28;20416;-60
2023/06/26 08:11:57;;;;;;;4.53;3.80;;;;;;;27.56;48.21;101087.00;5075751;28;20040;-60
2023/06/26 08:14:25;;;;;;;7.60;4.05;;;;;;;27.56;48.01;101081.56;5076677;28;20055;-60
2023/06/26 08:16:52;;;;;;;6.30;4.35;;;;;;;27.56;47.91;101081.56;5076745;28;20067;-60
2023/06/26 08:19:20;;;;;;;5.55;4.15;;;;;;;27.55;47.94;101079.03;5076663;28;20059;-60
2023/06/26 08:21:47;;;;;;;5.65;4.38;;;;;;;27.53;47.75;101081.91;5076679;28;20048;-60
2023/06/26 08:24:18;;;;;;;5.40;4.20;;;;;;;27.52;47.53;101077.50;5076681;28;20048;-60
2023/06/26 08:26:46;;;;;;;4.88;4.32;;;;;;;27.49;47.33;101071.59;5076532;28;20059;-60
2023/06/26 08:29:17;;;;;;;5.55;4.60;;;;;;;27.48;46.91;101072.63;5076228;28;20044;-60
2023/06/26 08:31:44;;;;;;;6.78;4.10;;;;;;;27.47;47.11;101071.78;5076235;28;20048;-60
2023/06/26 08:34:12;;;;;;;5.97;4.90;;;;;;;27.48;47.15;101065.31;5076049;28;20052;-60
2023/06/26 08:36:39;;;;;;;5.22;4.45;;;;;;;27.49;47.57;101063.44;5076104;28;20055;-60
2023/06/26 08:39:08;;;;;;;5.13;3.53;;;;;;;27.51;47.32;101066.81;5076153;28;20048;-60
2023/06/26 08:41:36;;;;;;;7.43;4.90;;;;;;;27.54;47.28;101077.31;5075903;28;20048;-60
2023/06/26 08:44:04;;;;;;;5.00;4.50;;;;;;;27.54;47.67;101071.88;5075903;28;20044;-60
2023/06/26 08:46:32;;;;;;;4.93;4.03;;;;;;;27.55;47.84;101069.00;5075595;28;20067;-60
2023/06/26 08:49:13;;;;;;;4.70;3.88;;;;;;;27.59;47.75;101066.78;5075676;28;20047;-60
2023/06/26 08:51:47;;;;;;;5.60;4.07;;;;;;;27.60;47.86;101066.56;5075060;28;20369;-60
2023/06/26 08:54:17;;;;;;;5.63;4.35;;;;;;;27.63;47.79;101064.50;5075480;28;20044;-60
2023/06/26 08:56:49;;;;;;;6.10;4.03;;;;;;;27.67;47.27;101066.72;5075661;28;20045;-59
2023/06/26 08:59:16;;;;;;;5.95;4.13;;;;;;;27.71;47.01;101062.59;5074289;28;20064;-60
2023/06/26 09:01:45;;;;;;;5.50;4.07;;;;;;;27.75;45.64;101058.53;5076039;28;20045;-59
2023/06/26 09:04:14;;;;;;;4.97;4.35;;;;;;;27.79;45.38;101054.41;5075484;28;20052;-58
2023/06/26 09:06:41;;;;;;;4.57;3.80;;;;;;;27.80;45.77;101056.09;5075783;28;20045;-59
2023/06/26 09:09:10;;;;;;;4.88;4.25;;;;;;;27.80;45.85;101061.53;5075773;28;20393;-59
2023/06/26 09:11:37;;;;;;;5.75;4.25;;;;;;;27.79;45.93;101054.41;5075595;28;20044;-60
2023/06/26 09:14:07;;;;;;;4.40;3.45;;;;;;;27.83;45.82;101052.13;5075428;28;20047;-60
2023/06/26 09:16:41;;;;;;;5.72;4.32;;;;;;;27.83;45.72;101050.28;5075706;28;20154;-60
2023/06/26 09:19:12;;;;;;;4.43;3.67;;;;;;;27.86;46.08;101054.50;5075640;28;20397;-59
2023/06/26 09:21:43;;;;;;;5.20;3.90;;;;;;;27.88;45.81;101040.75;5074800;28;20043;-57
2023/06/26 09:24:11;;;;;;;5.18;3.92;;;;;;;27.91;46.05;101054.78;5073718;28;20048;-57
2023/06/26 09:26:39;;;;;;;6.28;5.13;;;;;;;27.94;46.18;101049.00;5087052;28;20051;-57
2023/06/26 09:29:09;;;;;;;6.35;4.50;;;;;;;27.95;46.22;101052.56;5095603;28;20047;-57
2023/06/26 09:31:37;;;;;;;5.30;4.63;;;;;;;27.93;46.64;101052.75;5094438;28;20053;-57
2023/06/26 09:34:09;;;;;;;5.43;4.35;;;;;;;27.92;46.79;101045.63;5095163;28;20055;-57
2023/06/26 09:36:38;;;;;;;6.07;4.47;;;;;;;27.91;46.83;101046.63;5096030;28;20075;-57
2023/06/26 09:39:10;;;;;;;5.93;4.82;;;;;;;27.90;47.04;101042.22;5095486;28;20387;-57
2023/06/26 09:41:44;;;;;;;6.70;4.63;;;;;;;27.90;47.52;101036.78;5095210;28;20040;-58
2023/06/26 09:44:13;;;;;;;6.40;5.40;;;;;;;27.91;47.26;101037.63;5095346;28;20052;-59
2023/06/26 09:46:44;;;;;;;6.22;5.15;;;;;;;27.92;47.48;101032.00;5094548;28;20040;-59
2023/06/26 09:49:12;;;;;;;6.10;5.35;;;;;;;27.95;47.03;101037.06;5095375;28;20055;-58
2023/06/26 09:51:42;;;;;;;5.53;4.90;;;;;;;27.96;47.54;101033.34;5095067;28;20040;-58
2023/06/26 09:54:09;;;;;;;5.53;4.90;;;;;;;27.98;48.57;101025.81;5093868;28;20052;-58
2023/06/26 09:56:37;;;;;;;5.72;5.05;;;;;;;27.99;51.12;101027.50;5095161;28;20388;-58
2023/06/26 09:59:06;;;;;;;7.32;4.88;;;;;;;27.96;51.14;101021.63;5095209;28;20043;-58
2023/06/26 10:01:33;;;;;;;4.93;4.40;;;;;;;27.93;51.57;101017.38;5095130;28;20412;-58
2023/06/26 10:04:01;;;;;;;5.50;4.75;;;;;;;27.91;51.71;101010.41;5093822;28;20052;-58
2023/06/26 10:06:38;;;;;;;6.53;5.38;;;;;;;27.90;51.57;101014.16;5094854;28;20040;-59
2023/06/26 10:09:07;;;;;;;5.20;4.70;;;;;;;27.89;52.18;101004.31;5094669;28;20048;-58
2023/06/26 10:11:52;;;;;;;6.13;4.95;;;;;;;27.86;52.64;101013.69;5094214;28;20047;-58
2023/06/26 10:14:22;;;;;;;5.63;5.00;;;;;;;27.84;52.92;101008.44;5094919;28;20051;-59
2023/06/26 10:16:50;;;;;;;5.00;4.35;;;;;;;27.83;52.96;101005.88;5094521;28;20055;-58
2023/06/26 10:19:23;;;;;;;5.28;4.40;;;;;;;27.80;52.33;101007.13;5094737;28;20051;-59
2023/06/26 10:21:55;;;;;;;5.85;4.63;;;;;;;27.79;52.49;100999.13;5094640;28;20045;-58
2023/06/26 10:24:24;;;;;;;7.07;5.43;;;;;;;27.79;52.61;100999.13;5094347;28;20387;-59
2023/06/26 10:26:59;;;;;;;5.00;4.38;;;;;;;27.77;52.55;100999.31;5094562;28;20056;-59
2023/06/26 10:29:27;;;;;;;6.10;4.72;;;;;;;27.78;52.18;100994.72;5093053;28;20052;-59
2023/06/26 10:31:57;;;;;;;7.15;5.00;;;;;;;27.76;52.58;100999.50;5093277;28;20056;-59
2023/06/26 10:34:25;;;;;;;5.82;4.70;;;;;;;27.76;51.99;101000.34;5094053;28;20055;-59
2023/06/26 10:37:00;;;;;;;6.55;4.45;;;;;;;27.77;52.38;100993.03;5093593;28;20052;-59
2023/06/26 10:39:51;;;;;;;4.70;4.18;;;;;;;27.77;52.21;100993.03;5093950;28;20044;-59
2023/06/26 10:42:19;;;;;;;6.28;4.57;;;;;;;27.78;50.95;100989.28;5093729;28;20044;-59
2023/06/26 10:44:47;;;;;;;5.15;4.65;;;;;;;27.79;50.21;100990.97;5093648;28;20047;-59
2023/06/26 10:47:31;;;;;;;6.93;5.55;;;;;;;27.80;50.34;100984.50;5094165;28;20043;-59
2023/06/26 10:50:18;;;;;;;6.07;4.22;;;;;;;27.79;50.27;100982.81;5093823;28;20055;-59
2023/06/26 10:53:22;;;;;;;6.00;4.43;;;;;;;27.79;50.50;100989.13;5093892;28;20047;-58
2023/06/26 10:55:59;;;;;;;5.75;4.57;;;;;;;27.80;50.32;100979.06;5094075;28;20055;-59
2023/06/26 10:58:42;;;;;;;5.22;4.55;;;;;;;27.81;49.25;100975.31;5094193;28;20047;-59
2023/06/26 11:01:26;;;;;;;5.30;4.20;;;;;;;27.83;49.60;100979.56;5093934;28;20055;-58
2023/06/26 11:04:01;;;;;;;4.50;4.10;;;;;;;27.86;48.94;100983.75;5094066;28;20048;-59
2023/06/26 11:06:31;;;;;;;6.30;4.60;;;;;;;27.87;49.20;100985.44;5093764;28;20047;-59
2023/06/26 11:09:23;;;;;;;5.72;4.88;;;;;;;27.87;49.62;100982.72;5093544;28;20039;-59
2023/06/26 11:11:54;;;;;;;5.07;4.45;;;;;;;27.88;49.82;100970.00;5093594;28;20048;-57
2023/06/26 11:14:23;;;;;;;5.18;4.45;;;;;;;27.87;49.88;100971.84;5093784;28;20052;-57
2023/06/26 11:16:51;;;;;;;5.72;5.00;;;;;;;27.88;50.04;100967.28;5093638;28;20047;-57
2023/06/26 11:19:20;;;;;;;5.50;4.25;;;;;;;27.87;49.28;100966.41;5093732;28;20500;-57
2023/06/26 11:21:47;;;;;;;5.80;5.20;;;;;;;27.88;48.71;100965.38;5093790;28;20047;-57
2023/06/26 11:24:15;;;;;;;4.93;4.18;;;;;;;27.88;48.67;100957.22;5092346;28;20075;-57
2023/06/26 11:26:44;;;;;;;5.68;4.55;;;;;;;27.89;48.35;100950.75;5093594;28;20063;-57
2023/06/26 11:29:12;;;;;;;6.88;4.32;;;;;;;27.92;46.99;100964.00;5093150;28;20055;-57
2023/06/26 11:31:41;;;;;;;6.43;4.63;;;;;;;27.95;47.55;100960.88;5092883;28;20055;-57
2023/06/26 11:34:11;;;;;;;6.38;4.32;;;;;;;27.99;46.02;100959.47;5093003;28;20040;-57